sensor_id;sensor_type;location;lat;lon;timestamp;temperature;humidity
11538;DHT22;50159;49.426;11.182;2022-09-06T00:00:17;15.60;99.90
11538;DHT22;50159;49.426;11.182;2022-09-06T00:02:45;15.60;99.90
11538;DHT22;50159;49.426;11.182;2022-09-06T00:05:13;15.60;99.90
11538;DHT22;50159;49.426;11.182;2022-09-06T00:07:40;15.50;99.90
11538;DHT22;50159;49.426;11.182;2022-09-06T00:10:08;15.50;99.90
11538;DHT22;50159;49.426;11.182;2022-09-06T00:12:35;15.50;99.90
11538;DHT22;50159;49.426;11.182;2022-09-06T00:15:04;15.50;99.90
11538;DHT22;50159;49.426;11.182;2022-09-06T00:17:32;15.50;99.90
11538;DHT22;50159;49.426;11.182;2022-09-06T00:20:00;15.40;99.90
11538;DHT22;50159;49.426;11.182;2022-09-06T00:22:27;15.40;99.90
11538;DHT22;50159;49.426;11.182;2022-09-06T00:24:54;15.40;99.90
11538;DHT22;50159;49.426;11.182;2022-09-06T00:27:21;15.30;99.90
11538;DHT22;50159;49.426;11.182;2022-09-06T00:29:48;15.40;99.90
11538;DHT22;50159;49.426;11.182;2022-09-06T00:32:15;15.30;99.90
11538;DHT22;50159;49.426;11.182;2022-09-06T00:34:42;15.30;99.90
11538;DHT22;50159;49.426;11.182;2022-09-06T00:37:09;15.30;99.90
11538;DHT22;50159;49.426;11.182;2022-09-06T00:39:36;15.20;99.90
11538;DHT22;50159;49.426;11.182;2022-09-06T00:42:07;15.30;99.90
11538;DHT22;50159;49.426;11.182;2022-09-06T00:44:36;15.20;99.90
11538;DHT22;50159;49.426;11.182;2022-09-06T00:47:04;15.20;99.90
11538;DHT22;50159;49.426;11.182;2022-09-06T00:49:40;15.20;99.90
11538;DHT22;50159;49.426;11.182;2022-09-06T00:52:12;15.20;99.90
11538;DHT22;50159;49.426;11.182;2022-09-06T00:54:42;15.20;99.90
11538;DHT22;50159;49.426;11.182;2022-09-06T00:57:09;15.20;99.90
11538;DHT22;50159;49.426;11.182;2022-09-06T00:59:38;15.20;99.90
11538;DHT22;50159;49.426;11.182;2022-09-06T01:02:07;15.10;99.90
11538;DHT22;50159;49.426;11.182;2022-09-06T01:04:37;15.20;99.90
11538;DHT22;50159;49.426;11.182;2022-09-06T01:13:26;15.10;99.90
11538;DHT22;50159;49.426;11.182;2022-09-06T01:16:02;15.00;99.90
11538;DHT22;50159;49.426;11.182;2022-09-06T01:19:20;15.00;99.90
11538;DHT22;50159;49.426;11.182;2022-09-06T01:28:44;15.00;99.90
11538;DHT22;50159;49.426;11.182;2022-09-06T01:34:20;15.00;99.90
11538;DHT22;50159;49.426;11.182;2022-09-06T01:37:02;14.90;99.90
11538;DHT22;50159;49.426;11.182;2022-09-06T01:39:38;14.80;99.90
11538;DHT22;50159;49.426;11.182;2022-09-06T01:42:17;14.80;99.90
11538;DHT22;50159;49.426;11.182;2022-09-06T01:44:54;14.80;99.90
11538;DHT22;50159;49.426;11.182;2022-09-06T01:50:37;14.80;99.90
11538;DHT22;50159;49.426;11.182;2022-09-06T01:56:04;14.70;99.90
11538;DHT22;50159;49.426;11.182;2022-09-06T01:59:08;14.70;99.90
11538;DHT22;50159;49.426;11.182;2022-09-06T02:02:05;14.70;99.90
11538;DHT22;50159;49.426;11.182;2022-09-06T02:05:07;14.70;99.90
11538;DHT22;50159;49.426;11.182;2022-09-06T02:07:39;14.70;99.90
11538;DHT22;50159;49.426;11.182;2022-09-06T02:10:36;14.60;99.90
11538;DHT22;50159;49.426;11.182;2022-09-06T02:13:30;14.60;99.90
11538;DHT22;50159;49.426;11.182;2022-09-06T02:16:04;14.60;99.90
11538;DHT22;50159;49.426;11.182;2022-09-06T02:21:43;14.60;99.90
11538;DHT22;50159;49.426;11.182;2022-09-06T02:24:17;14.50;99.90
11538;DHT22;50159;49.426;11.182;2022-09-06T02:26:48;14.50;99.90
11538;DHT22;50159;49.426;11.182;2022-09-06T02:29:16;14.50;99.90
11538;DHT22;50159;49.426;11.182;2022-09-06T02:31:51;14.50;99.90
11538;DHT22;50159;49.426;11.182;2022-09-06T02:34:21;14.40;99.90
11538;DHT22;50159;49.426;11.182;2022-09-06T02:36:48;14.40;99.90
11538;DHT22;50159;49.426;11.182;2022-09-06T02:39:15;14.40;99.90
11538;DHT22;50159;49.426;11.182;2022-09-06T02:41:43;14.40;99.90
11538;DHT22;50159;49.426;11.182;2022-09-06T02:44:11;14.30;99.90
11538;DHT22;50159;49.426;11.182;2022-09-06T02:46:38;14.30;99.90
11538;DHT22;50159;49.426;11.182;2022-09-06T02:49:05;14.30;99.90
11538;DHT22;50159;49.426;11.182;2022-09-06T02:51:37;14.20;99.90
11538;DHT22;50159;49.426;11.182;2022-09-06T02:54:05;14.20;99.90
11538;DHT22;50159;49.426;11.182;2022-09-06T02:56:33;14.30;99.90
11538;DHT22;50159;49.426;11.182;2022-09-06T02:59:02;14.20;99.90
11538;DHT22;50159;49.426;11.182;2022-09-06T03:01:32;14.20;99.90
11538;DHT22;50159;49.426;11.182;2022-09-06T03:03:59;14.20;99.90
11538;DHT22;50159;49.426;11.182;2022-09-06T03:06:26;14.20;99.90
11538;DHT22;50159;49.426;11.182;2022-09-06T03:08:53;14.10;99.90
11538;DHT22;50159;49.426;11.182;2022-09-06T03:11:20;14.10;99.90
11538;DHT22;50159;49.426;11.182;2022-09-06T03:13:47;14.10;99.90
11538;DHT22;50159;49.426;11.182;2022-09-06T03:16:16;14.10;99.90
11538;DHT22;50159;49.426;11.182;2022-09-06T03:18:44;14.10;99.90
11538;DHT22;50159;49.426;11.182;2022-09-06T03:21:12;14.10;99.90
11538;DHT22;50159;49.426;11.182;2022-09-06T03:23:40;14.00;99.90
11538;DHT22;50159;49.426;11.182;2022-09-06T03:26:07;14.00;99.90
11538;DHT22;50159;49.426;11.182;2022-09-06T03:28:34;14.00;99.90
11538;DHT22;50159;49.426;11.182;2022-09-06T03:31:01;14.00;99.90
11538;DHT22;50159;49.426;11.182;2022-09-06T03:33:27;13.90;99.90
11538;DHT22;50159;49.426;11.182;2022-09-06T03:35:59;13.90;99.90
11538;DHT22;50159;49.426;11.182;2022-09-06T03:38:27;13.90;99.90
11538;DHT22;50159;49.426;11.182;2022-09-06T03:40:55;13.90;99.90
11538;DHT22;50159;49.426;11.182;2022-09-06T03:43:23;13.90;99.90
11538;DHT22;50159;49.426;11.182;2022-09-06T03:45:53;13.90;99.90
11538;DHT22;50159;49.426;11.182;2022-09-06T03:48:24;13.90;99.90
11538;DHT22;50159;49.426;11.182;2022-09-06T03:50:54;13.90;99.90
11538;DHT22;50159;49.426;11.182;2022-09-06T03:53:23;13.90;99.90
11538;DHT22;50159;49.426;11.182;2022-09-06T03:55:53;13.90;99.90
11538;DHT22;50159;49.426;11.182;2022-09-06T03:58:22;13.90;99.90
11538;DHT22;50159;49.426;11.182;2022-09-06T04:01:03;13.90;99.90
11538;DHT22;50159;49.426;11.182;2022-09-06T04:03:32;13.80;99.90
11538;DHT22;50159;49.426;11.182;2022-09-06T04:06:00;13.80;99.90
11538;DHT22;50159;49.426;11.182;2022-09-06T04:08:28;13.80;99.90
11538;DHT22;50159;49.426;11.182;2022-09-06T04:10:56;13.80;99.90
11538;DHT22;50159;49.426;11.182;2022-09-06T04:13:24;13.80;99.90
11538;DHT22;50159;49.426;11.182;2022-09-06T04:15:52;13.80;99.90
11538;DHT22;50159;49.426;11.182;2022-09-06T04:18:20;13.80;99.90
11538;DHT22;50159;49.426;11.182;2022-09-06T04:20:48;13.80;99.90
11538;DHT22;50159;49.426;11.182;2022-09-06T04:23:18;13.80;99.90
11538;DHT22;50159;49.426;11.182;2022-09-06T04:25:49;13.80;99.90
11538;DHT22;50159;49.426;11.182;2022-09-06T04:28:18;13.80;99.90
11538;DHT22;50159;49.426;11.182;2022-09-06T04:30:54;13.80;99.90
11538;DHT22;50159;49.426;11.182;2022-09-06T04:33:32;13.80;99.90
11538;DHT22;50159;49.426;11.182;2022-09-06T04:36:01;13.80;99.90
11538;DHT22;50159;49.426;11.182;2022-09-06T04:38:38;13.80;99.90
11538;DHT22;50159;49.426;11.182;2022-09-06T04:41:06;13.80;99.90
11538;DHT22;50159;49.426;11.182;2022-09-06T04:43:34;13.80;99.90
11538;DHT22;50159;49.426;11.182;2022-09-06T04:46:06;13.80;99.90
11538;DHT22;50159;49.426;11.182;2022-09-06T04:48:37;13.80;99.90
11538;DHT22;50159;49.426;11.182;2022-09-06T04:51:04;13.80;99.90
11538;DHT22;50159;49.426;11.182;2022-09-06T04:53:31;13.80;99.90
11538;DHT22;50159;49.426;11.182;2022-09-06T04:55:58;13.90;99.90
11538;DHT22;50159;49.426;11.182;2022-09-06T04:58:25;13.90;99.90
11538;DHT22;50159;49.426;11.182;2022-09-06T05:00:52;13.90;99.90
11538;DHT22;50159;49.426;11.182;2022-09-06T05:03:19;14.00;99.90
11538;DHT22;50159;49.426;11.182;2022-09-06T05:05:46;14.00;99.90
11538;DHT22;50159;49.426;11.182;2022-09-06T05:08:13;14.00;99.90
11538;DHT22;50159;49.426;11.182;2022-09-06T05:10:40;14.00;99.90
11538;DHT22;50159;49.426;11.182;2022-09-06T05:13:07;14.10;99.90
11538;DHT22;50159;49.426;11.182;2022-09-06T05:15:33;14.10;99.90
11538;DHT22;50159;49.426;11.182;2022-09-06T05:18:02;14.10;99.90
11538;DHT22;50159;49.426;11.182;2022-09-06T05:20:30;14.10;99.90
11538;DHT22;50159;49.426;11.182;2022-09-06T05:22:58;14.20;99.90
11538;DHT22;50159;49.426;11.182;2022-09-06T05:25:25;14.20;99.90
11538;DHT22;50159;49.426;11.182;2022-09-06T05:27:52;14.20;99.90
11538;DHT22;50159;49.426;11.182;2022-09-06T05:30:19;14.20;99.90
11538;DHT22;50159;49.426;11.182;2022-09-06T05:32:46;14.30;99.90
11538;DHT22;50159;49.426;11.182;2022-09-06T05:35:13;14.30;99.90
11538;DHT22;50159;49.426;11.182;2022-09-06T05:37:40;14.30;99.90
11538;DHT22;50159;49.426;11.182;2022-09-06T05:40:07;14.40;99.90
11538;DHT22;50159;49.426;11.182;2022-09-06T05:42:34;14.50;99.90
11538;DHT22;50159;49.426;11.182;2022-09-06T05:45:01;14.50;99.90
11538;DHT22;50159;49.426;11.182;2022-09-06T05:47:28;14.60;99.90
11538;DHT22;50159;49.426;11.182;2022-09-06T05:49:58;14.70;99.90
11538;DHT22;50159;49.426;11.182;2022-09-06T05:52:25;14.70;99.90
11538;DHT22;50159;49.426;11.182;2022-09-06T05:54:52;14.80;99.90
11538;DHT22;50159;49.426;11.182;2022-09-06T05:57:18;14.90;99.90
11538;DHT22;50159;49.426;11.182;2022-09-06T05:59:45;15.00;99.90
11538;DHT22;50159;49.426;11.182;2022-09-06T06:02:12;15.10;99.90
11538;DHT22;50159;49.426;11.182;2022-09-06T06:04:39;15.10;99.90
11538;DHT22;50159;49.426;11.182;2022-09-06T06:07:06;15.10;99.90
11538;DHT22;50159;49.426;11.182;2022-09-06T06:09:32;15.20;99.90
11538;DHT22;50159;49.426;11.182;2022-09-06T06:11:59;15.30;99.90
11538;DHT22;50159;49.426;11.182;2022-09-06T06:14:26;15.40;99.90
11538;DHT22;50159;49.426;11.182;2022-09-06T06:16:53;15.40;99.90
11538;DHT22;50159;49.426;11.182;2022-09-06T06:19:20;15.50;99.90
11538;DHT22;50159;49.426;11.182;2022-09-06T06:21:46;15.60;99.90
11538;DHT22;50159;49.426;11.182;2022-09-06T06:24:13;15.70;99.90
11538;DHT22;50159;49.426;11.182;2022-09-06T06:26:40;15.80;99.90
11538;DHT22;50159;49.426;11.182;2022-09-06T06:29:07;16.00;99.90
11538;DHT22;50159;49.426;11.182;2022-09-06T06:31:37;16.10;99.90
11538;DHT22;50159;49.426;11.182;2022-09-06T06:34:05;16.30;99.90
11538;DHT22;50159;49.426;11.182;2022-09-06T06:36:34;16.40;99.90
11538;DHT22;50159;49.426;11.182;2022-09-06T06:39:04;16.70;99.90
11538;DHT22;50159;49.426;11.182;2022-09-06T06:41:33;16.90;99.90
11538;DHT22;50159;49.426;11.182;2022-09-06T06:44:03;17.10;99.90
11538;DHT22;50159;49.426;11.182;2022-09-06T06:46:35;17.30;99.90
11538;DHT22;50159;49.426;11.182;2022-09-06T06:49:04;17.50;99.90
11538;DHT22;50159;49.426;11.182;2022-09-06T06:51:32;17.70;99.90
11538;DHT22;50159;49.426;11.182;2022-09-06T06:54:03;18.00;99.90
11538;DHT22;50159;49.426;11.182;2022-09-06T06:56:36;18.20;99.90
11538;DHT22;50159;49.426;11.182;2022-09-06T06:59:05;18.30;99.90
11538;DHT22;50159;49.426;11.182;2022-09-06T07:01:34;18.40;99.90
11538;DHT22;50159;49.426;11.182;2022-09-06T07:04:02;18.40;99.90
11538;DHT22;50159;49.426;11.182;2022-09-06T07:06:30;18.50;99.90
11538;DHT22;50159;49.426;11.182;2022-09-06T07:09:30;18.60;99.90
11538;DHT22;50159;49.426;11.182;2022-09-06T07:12:17;18.70;99.90
11538;DHT22;50159;49.426;11.182;2022-09-06T07:14:44;18.70;99.90
11538;DHT22;50159;49.426;11.182;2022-09-06T07:17:11;18.80;99.90
11538;DHT22;50159;49.426;11.182;2022-09-06T07:19:38;18.90;99.90
11538;DHT22;50159;49.426;11.182;2022-09-06T07:22:24;19.00;99.90
11538;DHT22;50159;49.426;11.182;2022-09-06T07:24:51;19.20;99.90
11538;DHT22;50159;49.426;11.182;2022-09-06T07:27:18;19.40;99.90
11538;DHT22;50159;49.426;11.182;2022-09-06T07:30:05;19.70;99.90
11538;DHT22;50159;49.426;11.182;2022-09-06T07:32:35;20.00;99.90
11538;DHT22;50159;49.426;11.182;2022-09-06T07:35:02;20.10;99.90
11538;DHT22;50159;49.426;11.182;2022-09-06T07:37:29;20.10;99.90
11538;DHT22;50159;49.426;11.182;2022-09-06T07:39:59;20.10;99.90
11538;DHT22;50159;49.426;11.182;2022-09-06T07:42:26;20.10;99.90
11538;DHT22;50159;49.426;11.182;2022-09-06T07:44:53;20.10;99.90
11538;DHT22;50159;49.426;11.182;2022-09-06T07:47:23;20.20;99.90
11538;DHT22;50159;49.426;11.182;2022-09-06T07:50:10;20.30;99.90
11538;DHT22;50159;49.426;11.182;2022-09-06T07:53:04;20.40;99.90
11538;DHT22;50159;49.426;11.182;2022-09-06T07:55:36;20.50;99.90
11538;DHT22;50159;49.426;11.182;2022-09-06T07:58:03;20.70;99.90
11538;DHT22;50159;49.426;11.182;2022-09-06T08:00:30;20.80;99.90
11538;DHT22;50159;49.426;11.182;2022-09-06T08:02:57;21.10;99.90
11538;DHT22;50159;49.426;11.182;2022-09-06T08:05:24;21.40;99.90
11538;DHT22;50159;49.426;11.182;2022-09-06T08:08:12;21.40;99.90
11538;DHT22;50159;49.426;11.182;2022-09-06T08:11:02;21.30;99.90
11538;DHT22;50159;49.426;11.182;2022-09-06T08:13:29;21.20;99.90
11538;DHT22;50159;49.426;11.182;2022-09-06T08:16:04;21.20;99.90
11538;DHT22;50159;49.426;11.182;2022-09-06T08:18:33;21.20;99.90
11538;DHT22;50159;49.426;11.182;2022-09-06T08:23:49;21.20;99.90
11538;DHT22;50159;49.426;11.182;2022-09-06T08:26:19;21.30;99.90
11538;DHT22;50159;49.426;11.182;2022-09-06T08:28:52;21.40;99.90
11538;DHT22;50159;49.426;11.182;2022-09-06T08:31:20;21.50;99.90
11538;DHT22;50159;49.426;11.182;2022-09-06T08:33:47;21.60;99.90
11538;DHT22;50159;49.426;11.182;2022-09-06T08:36:14;21.60;99.90
11538;DHT22;50159;49.426;11.182;2022-09-06T08:38:41;21.60;99.90
11538;DHT22;50159;49.426;11.182;2022-09-06T08:41:20;21.80;99.90
11538;DHT22;50159;49.426;11.182;2022-09-06T08:43:57;21.90;99.90
11538;DHT22;50159;49.426;11.182;2022-09-06T08:46:56;21.90;99.90
11538;DHT22;50159;49.426;11.182;2022-09-06T08:49:26;22.10;99.90
11538;DHT22;50159;49.426;11.182;2022-09-06T08:55:43;22.40;99.90
11538;DHT22;50159;49.426;11.182;2022-09-06T08:59:01;22.70;99.90
11538;DHT22;50159;49.426;11.182;2022-09-06T09:02:20;22.80;99.90
11538;DHT22;50159;49.426;11.182;2022-09-06T09:04:44;22.90;99.90
11538;DHT22;50159;49.426;11.182;2022-09-06T09:07:32;22.90;99.90
11538;DHT22;50159;49.426;11.182;2022-09-06T09:10:13;22.90;99.90
11538;DHT22;50159;49.426;11.182;2022-09-06T09:12:47;22.90;99.70
11538;DHT22;50159;49.426;11.182;2022-09-06T09:15:18;23.00;99.20
11538;DHT22;50159;49.426;11.182;2022-09-06T09:17:47;23.10;99.00
11538;DHT22;50159;49.426;11.182;2022-09-06T09:20:17;23.00;99.00
11538;DHT22;50159;49.426;11.182;2022-09-06T09:22:44;23.00;99.00
11538;DHT22;50159;49.426;11.182;2022-09-06T09:25:20;23.00;98.90
11538;DHT22;50159;49.426;11.182;2022-09-06T09:27:51;23.10;98.70
11538;DHT22;50159;49.426;11.182;2022-09-06T09:30:44;23.30;98.30
11538;DHT22;50159;49.426;11.182;2022-09-06T09:33:33;23.60;96.90
11538;DHT22;50159;49.426;11.182;2022-09-06T09:36:07;23.80;96.40
11538;DHT22;50159;49.426;11.182;2022-09-06T09:38:45;24.00;95.50
11538;DHT22;50159;49.426;11.182;2022-09-06T09:41:30;24.30;92.90
11538;DHT22;50159;49.426;11.182;2022-09-06T09:44:04;24.40;92.70
11538;DHT22;50159;49.426;11.182;2022-09-06T09:46:36;24.50;92.10
11538;DHT22;50159;49.426;11.182;2022-09-06T09:49:12;24.70;91.40
11538;DHT22;50159;49.426;11.182;2022-09-06T09:51:44;24.90;90.80
11538;DHT22;50159;49.426;11.182;2022-09-06T09:54:29;25.10;89.20
11538;DHT22;50159;49.426;11.182;2022-09-06T09:56:57;25.30;87.80
11538;DHT22;50159;49.426;11.182;2022-09-06T09:59:26;25.30;86.20
11538;DHT22;50159;49.426;11.182;2022-09-06T10:02:00;25.50;87.00
11538;DHT22;50159;49.426;11.182;2022-09-06T10:04:47;25.80;82.70
11538;DHT22;50159;49.426;11.182;2022-09-06T10:07:20;25.80;80.90
11538;DHT22;50159;49.426;11.182;2022-09-06T10:10:20;26.00;81.60
11538;DHT22;50159;49.426;11.182;2022-09-06T10:13:20;26.30;80.00
11538;DHT22;50159;49.426;11.182;2022-09-06T10:15:50;26.40;78.10
11538;DHT22;50159;49.426;11.182;2022-09-06T10:21:08;26.70;76.20
11538;DHT22;50159;49.426;11.182;2022-09-06T10:27:00;27.00;75.00
11538;DHT22;50159;49.426;11.182;2022-09-06T10:29:45;27.00;72.90
11538;DHT22;50159;49.426;11.182;2022-09-06T10:32:34;27.10;70.00
11538;DHT22;50159;49.426;11.182;2022-09-06T10:35:38;27.10;69.50
11538;DHT22;50159;49.426;11.182;2022-09-06T10:38:24;27.10;69.80
11538;DHT22;50159;49.426;11.182;2022-09-06T10:41:32;27.30;71.80
11538;DHT22;50159;49.426;11.182;2022-09-06T10:47:09;27.30;65.90
11538;DHT22;50159;49.426;11.182;2022-09-06T10:49:44;27.50;65.00
11538;DHT22;50159;49.426;11.182;2022-09-06T10:52:23;27.70;62.90
11538;DHT22;50159;49.426;11.182;2022-09-06T10:55:01;27.60;61.60
11538;DHT22;50159;49.426;11.182;2022-09-06T10:57:42;27.60;62.50
11538;DHT22;50159;49.426;11.182;2022-09-06T11:00:36;27.80;62.30
11538;DHT22;50159;49.426;11.182;2022-09-06T11:03:20;28.00;61.70
11538;DHT22;50159;49.426;11.182;2022-09-06T11:06:13;28.20;60.40
11538;DHT22;50159;49.426;11.182;2022-09-06T11:08:50;28.30;58.10
11538;DHT22;50159;49.426;11.182;2022-09-06T11:14:12;28.10;55.50
11538;DHT22;50159;49.426;11.182;2022-09-06T11:17:04;28.00;57.10
11538;DHT22;50159;49.426;11.182;2022-09-06T11:20:02;28.40;55.70
11538;DHT22;50159;49.426;11.182;2022-09-06T11:23:11;28.60;54.80
11538;DHT22;50159;49.426;11.182;2022-09-06T11:29:16;28.90;53.70
11538;DHT22;50159;49.426;11.182;2022-09-06T11:31:54;28.70;51.20
11538;DHT22;50159;49.426;11.182;2022-09-06T11:34:51;28.20;52.90
11538;DHT22;50159;49.426;11.182;2022-09-06T11:37:37;27.80;54.50
11538;DHT22;50159;49.426;11.182;2022-09-06T11:40:23;27.60;57.00
11538;DHT22;50159;49.426;11.182;2022-09-06T11:45:40;27.60;57.60
11538;DHT22;50159;49.426;11.182;2022-09-06T11:53:28;28.60;55.50
11538;DHT22;50159;49.426;11.182;2022-09-06T11:58:50;29.10;54.80
11538;DHT22;50159;49.426;11.182;2022-09-06T12:06:36;29.20;51.50
11538;DHT22;50159;49.426;11.182;2022-09-06T12:09:34;29.20;51.90
11538;DHT22;50159;49.426;11.182;2022-09-06T12:12:03;29.40;52.80
11538;DHT22;50159;49.426;11.182;2022-09-06T12:19:55;30.00;54.40
11538;DHT22;50159;49.426;11.182;2022-09-06T12:25:01;29.70;50.80
11538;DHT22;50159;49.426;11.182;2022-09-06T12:27:53;29.50;51.90
11538;DHT22;50159;49.426;11.182;2022-09-06T12:33:09;29.40;51.80
11538;DHT22;50159;49.426;11.182;2022-09-06T12:35:39;29.40;50.50
11538;DHT22;50159;49.426;11.182;2022-09-06T12:38:24;29.20;49.10
11538;DHT22;50159;49.426;11.182;2022-09-06T12:40:51;29.10;50.50
11538;DHT22;50159;49.426;11.182;2022-09-06T12:43:24;29.10;51.40
11538;DHT22;50159;49.426;11.182;2022-09-06T12:45:51;29.30;52.00
11538;DHT22;50159;49.426;11.182;2022-09-06T12:48:29;29.30;50.20
11538;DHT22;50159;49.426;11.182;2022-09-06T12:51:04;29.60;52.80
11538;DHT22;50159;49.426;11.182;2022-09-06T12:53:52;29.90;52.20
11538;DHT22;50159;49.426;11.182;2022-09-06T12:56:22;30.30;51.40
11538;DHT22;50159;49.426;11.182;2022-09-06T12:58:50;30.70;50.70
11538;DHT22;50159;49.426;11.182;2022-09-06T13:01:30;31.00;49.40
11538;DHT22;50159;49.426;11.182;2022-09-06T13:04:10;31.30;49.40
11538;DHT22;50159;49.426;11.182;2022-09-06T13:06:45;31.30;48.80
11538;DHT22;50159;49.426;11.182;2022-09-06T13:09:17;31.10;48.40
11538;DHT22;50159;49.426;11.182;2022-09-06T13:11:49;30.60;48.00
11538;DHT22;50159;49.426;11.182;2022-09-06T13:14:26;30.50;49.30
11538;DHT22;50159;49.426;11.182;2022-09-06T13:16:55;30.60;48.70
11538;DHT22;50159;49.426;11.182;2022-09-06T13:19:34;30.70;48.20
11538;DHT22;50159;49.426;11.182;2022-09-06T13:22:04;30.90;49.00
11538;DHT22;50159;49.426;11.182;2022-09-06T13:27:00;30.40;48.80
11538;DHT22;50159;49.426;11.182;2022-09-06T13:29:59;30.20;50.30
11538;DHT22;50159;49.426;11.182;2022-09-06T13:32:29;30.40;52.20
11538;DHT22;50159;49.426;11.182;2022-09-06T13:37:26;30.40;51.10
11538;DHT22;50159;49.426;11.182;2022-09-06T13:39:55;30.10;49.80
11538;DHT22;50159;49.426;11.182;2022-09-06T13:42:33;29.50;50.40
11538;DHT22;50159;49.426;11.182;2022-09-06T13:45:39;29.20;54.10
11538;DHT22;50159;49.426;11.182;2022-09-06T13:48:06;29.00;57.60
11538;DHT22;50159;49.426;11.182;2022-09-06T13:50:53;29.30;55.10
11538;DHT22;50159;49.426;11.182;2022-09-06T13:53:19;29.70;53.00
11538;DHT22;50159;49.426;11.182;2022-09-06T13:55:46;30.00;50.90
11538;DHT22;50159;49.426;11.182;2022-09-06T13:58:13;30.30;49.80
11538;DHT22;50159;49.426;11.182;2022-09-06T14:00:43;30.50;48.20
11538;DHT22;50159;49.426;11.182;2022-09-06T14:03:22;30.80;49.10
11538;DHT22;50159;49.426;11.182;2022-09-06T14:05:52;31.30;48.70
11538;DHT22;50159;49.426;11.182;2022-09-06T14:08:19;31.70;47.60
11538;DHT22;50159;49.426;11.182;2022-09-06T14:10:46;32.20;46.30
11538;DHT22;50159;49.426;11.182;2022-09-06T14:13:15;32.90;43.40
11538;DHT22;50159;49.426;11.182;2022-09-06T14:15:44;34.50;42.70
11538;DHT22;50159;49.426;11.182;2022-09-06T14:18:12;36.70;38.10
11538;DHT22;50159;49.426;11.182;2022-09-06T14:20:41;38.00;34.60
11538;DHT22;50159;49.426;11.182;2022-09-06T14:23:08;39.40;31.70
11538;DHT22;50159;49.426;11.182;2022-09-06T14:25:36;40.00;30.60
11538;DHT22;50159;49.426;11.182;2022-09-06T14:28:04;40.90;30.10
11538;DHT22;50159;49.426;11.182;2022-09-06T14:30:31;41.60;28.90
11538;DHT22;50159;49.426;11.182;2022-09-06T14:32:58;41.90;29.20
11538;DHT22;50159;49.426;11.182;2022-09-06T14:35:25;41.20;28.90
11538;DHT22;50159;49.426;11.182;2022-09-06T14:37:53;39.90;30.00
11538;DHT22;50159;49.426;11.182;2022-09-06T14:40:20;38.40;30.80
11538;DHT22;50159;49.426;11.182;2022-09-06T14:42:47;36.70;31.70
11538;DHT22;50159;49.426;11.182;2022-09-06T14:45:16;35.00;34.40
11538;DHT22;50159;49.426;11.182;2022-09-06T14:47:43;33.60;41.70
11538;DHT22;50159;49.426;11.182;2022-09-06T14:50:10;32.60;46.40
11538;DHT22;50159;49.426;11.182;2022-09-06T14:52:38;31.90;45.10
11538;DHT22;50159;49.426;11.182;2022-09-06T14:55:05;31.60;47.20
11538;DHT22;50159;49.426;11.182;2022-09-06T14:57:32;31.40;45.50
11538;DHT22;50159;49.426;11.182;2022-09-06T14:59:59;31.20;45.90
11538;DHT22;50159;49.426;11.182;2022-09-06T15:02:27;31.10;45.10
11538;DHT22;50159;49.426;11.182;2022-09-06T15:04:54;31.00;46.50
11538;DHT22;50159;49.426;11.182;2022-09-06T15:07:21;30.90;45.80
11538;DHT22;50159;49.426;11.182;2022-09-06T15:09:48;30.80;44.70
11538;DHT22;50159;49.426;11.182;2022-09-06T15:12:16;30.70;44.80
11538;DHT22;50159;49.426;11.182;2022-09-06T15:14:43;31.00;47.10
11538;DHT22;50159;49.426;11.182;2022-09-06T15:17:10;31.50;46.20
11538;DHT22;50159;49.426;11.182;2022-09-06T15:19:38;32.20;44.80
11538;DHT22;50159;49.426;11.182;2022-09-06T15:22:05;33.00;43.50
11538;DHT22;50159;49.426;11.182;2022-09-06T15:24:33;33.70;41.40
11538;DHT22;50159;49.426;11.182;2022-09-06T15:27:00;34.40;40.70
11538;DHT22;50159;49.426;11.182;2022-09-06T15:29:27;34.20;38.80
11538;DHT22;50159;49.426;11.182;2022-09-06T15:31:54;33.70;39.00
11538;DHT22;50159;49.426;11.182;2022-09-06T15:34:23;33.10;38.70
11538;DHT22;50159;49.426;11.182;2022-09-06T15:36:51;32.60;40.60
11538;DHT22;50159;49.426;11.182;2022-09-06T15:39:19;32.10;40.90
11538;DHT22;50159;49.426;11.182;2022-09-06T15:41:48;31.80;42.10
11538;DHT22;50159;49.426;11.182;2022-09-06T15:44:17;31.50;43.50
11538;DHT22;50159;49.426;11.182;2022-09-06T15:46:51;31.20;43.70
11538;DHT22;50159;49.426;11.182;2022-09-06T15:49:22;31.00;42.90
11538;DHT22;50159;49.426;11.182;2022-09-06T15:51:55;30.80;43.20
11538;DHT22;50159;49.426;11.182;2022-09-06T15:54:23;30.70;45.10
11538;DHT22;50159;49.426;11.182;2022-09-06T15:57:11;30.50;44.50
11538;DHT22;50159;49.426;11.182;2022-09-06T15:59:39;30.20;44.00
11538;DHT22;50159;49.426;11.182;2022-09-06T16:02:07;30.00;45.10
11538;DHT22;50159;49.426;11.182;2022-09-06T16:04:35;29.70;44.90
11538;DHT22;50159;49.426;11.182;2022-09-06T16:07:02;29.60;45.20
11538;DHT22;50159;49.426;11.182;2022-09-06T16:09:29;29.50;47.20
11538;DHT22;50159;49.426;11.182;2022-09-06T16:11:57;29.40;45.90
11538;DHT22;50159;49.426;11.182;2022-09-06T16:14:23;29.20;46.10
11538;DHT22;50159;49.426;11.182;2022-09-06T16:16:51;29.10;46.60
11538;DHT22;50159;49.426;11.182;2022-09-06T16:19:20;29.00;46.10
11538;DHT22;50159;49.426;11.182;2022-09-06T16:21:47;28.80;46.50
11538;DHT22;50159;49.426;11.182;2022-09-06T16:24:16;28.70;46.40
11538;DHT22;50159;49.426;11.182;2022-09-06T16:26:44;28.60;47.50
11538;DHT22;50159;49.426;11.182;2022-09-06T16:29:14;28.50;48.50
11538;DHT22;50159;49.426;11.182;2022-09-06T16:31:44;28.40;50.10
11538;DHT22;50159;49.426;11.182;2022-09-06T16:34:11;28.30;49.80
11538;DHT22;50159;49.426;11.182;2022-09-06T16:36:39;28.10;50.20
11538;DHT22;50159;49.426;11.182;2022-09-06T16:39:07;28.10;52.40
11538;DHT22;50159;49.426;11.182;2022-09-06T16:44:09;27.80;53.30
11538;DHT22;50159;49.426;11.182;2022-09-06T16:46:47;27.70;51.80
11538;DHT22;50159;49.426;11.182;2022-09-06T16:49:16;27.60;53.20
11538;DHT22;50159;49.426;11.182;2022-09-06T16:51:45;27.40;54.00
11538;DHT22;50159;49.426;11.182;2022-09-06T16:54:13;27.30;56.40
11538;DHT22;50159;49.426;11.182;2022-09-06T16:56:41;27.20;57.40
11538;DHT22;50159;49.426;11.182;2022-09-06T16:59:09;27.10;58.80
11538;DHT22;50159;49.426;11.182;2022-09-06T17:01:38;26.90;59.10
11538;DHT22;50159;49.426;11.182;2022-09-06T17:04:09;26.70;60.00
11538;DHT22;50159;49.426;11.182;2022-09-06T17:06:36;26.50;59.90
11538;DHT22;50159;49.426;11.182;2022-09-06T17:09:21;26.40;61.80